sensor_id;sensor_type;location;lat;lon;timestamp;pressure;altitude;pressure_sealevel;temperature;humidity
39275;BME280;24980;48.874;2.332;2022-08-19T00:00:19;101123.09;;;29.55;41.62
39275;BME280;24980;48.874;2.332;2022-08-19T00:02:48;101117.81;;;29.55;41.62
39275;BME280;24980;48.874;2.332;2022-08-19T00:05:19;101117.47;;;29.55;41.63
39275;BME280;24980;48.874;2.332;2022-08-19T00:07:50;101116.97;;;29.54;41.64
39275;BME280;24980;48.874;2.332;2022-08-19T00:10:20;101116.18;;;29.53;41.65
39275;BME280;24980;48.874;2.332;2022-08-19T00:12:49;101116.55;;;29.52;41.66
39275;BME280;24980;48.874;2.332;2022-08-19T00:15:21;101121.48;;;29.53;41.68
39275;BME280;24980;48.874;2.332;2022-08-19T00:17:53;101124.08;;;29.52;41.67
39275;BME280;24980;48.874;2.332;2022-08-19T00:20:24;101124.92;;;29.51;41.70
39275;BME280;24980;48.874;2.332;2022-08-19T00:22:51;101126.04;;;29.48;41.71
39275;BME280;24980;48.874;2.332;2022-08-19T00:25:22;101128.66;;;29.48;41.69
39275;BME280;24980;48.874;2.332;2022-08-19T00:27:52;101125.75;;;29.47;41.69
39275;BME280;24980;48.874;2.332;2022-08-19T00:30:22;101127.41;;;29.48;41.69
39275;BME280;24980;48.874;2.332;2022-08-19T00:32:52;101126.00;;;29.47;41.68
39275;BME280;24980;48.874;2.332;2022-08-19T00:35:23;101123.79;;;29.47;41.69
39275;BME280;24980;48.874;2.332;2022-08-19T00:37:54;101123.53;;;29.47;41.69
39275;BME280;24980;48.874;2.332;2022-08-19T00:40:23;101129.95;;;29.46;41.70
39275;BME280;24980;48.874;2.332;2022-08-19T00:42:54;101130.42;;;29.45;41.71
39275;BME280;24980;48.874;2.332;2022-08-19T00:45:27;101127.09;;;29.43;41.71
39275;BME280;24980;48.874;2.332;2022-08-19T00:47:54;101126.34;;;29.43;41.72
39275;BME280;24980;48.874;2.332;2022-08-19T00:50:25;101123.68;;;29.43;41.72
39275;BME280;24980;48.874;2.332;2022-08-19T00:52:58;101126.46;;;29.42;41.71
39275;BME280;24980;48.874;2.332;2022-08-19T00:55:29;101128.70;;;29.39;41.72
39275;BME280;24980;48.874;2.332;2022-08-19T00:58:00;101124.95;;;29.39;41.72
39275;BME280;24980;48.874;2.332;2022-08-19T01:00:29;101122.95;;;29.36;41.72
39275;BME280;24980;48.874;2.332;2022-08-19T01:02:58;101128.33;;;29.36;41.71
39275;BME280;24980;48.874;2.332;2022-08-19T01:05:29;101123.88;;;29.36;41.68
39275;BME280;24980;48.874;2.332;2022-08-19T01:08:01;101123.72;;;29.36;41.68
39275;BME280;24980;48.874;2.332;2022-08-19T01:10:33;101125.69;;;29.36;41.68
39275;BME280;24980;48.874;2.332;2022-08-19T01:13:01;101122.19;;;29.35;41.67
39275;BME280;24980;48.874;2.332;2022-08-19T01:15:35;101122.19;;;29.35;41.67
39275;BME280;24980;48.874;2.332;2022-08-19T01:18:06;101117.23;;;29.34;41.67
39275;BME280;24980;48.874;2.332;2022-08-19T01:20:32;101119.72;;;29.33;41.67
39275;BME280;24980;48.874;2.332;2022-08-19T01:23:03;101119.24;;;29.32;41.67
39275;BME280;24980;48.874;2.332;2022-08-19T01:25:44;101118.90;;;29.31;41.67
39275;BME280;24980;48.874;2.332;2022-08-19T01:28:03;101123.36;;;29.30;41.67
39275;BME280;24980;48.874;2.332;2022-08-19T01:30:35;101119.20;;;29.29;41.67
39275;BME280;24980;48.874;2.332;2022-08-19T01:33:04;101121.35;;;29.28;41.66
39275;BME280;24980;48.874;2.332;2022-08-19T01:35:35;101124.42;;;29.27;41.67
39275;BME280;24980;48.874;2.332;2022-08-19T01:38:08;101125.54;;;29.24;41.68
39275;BME280;24980;48.874;2.332;2022-08-19T01:40:37;101128.58;;;29.22;41.68
39275;BME280;24980;48.874;2.332;2022-08-19T01:43:05;101131.27;;;29.22;41.66
39275;BME280;24980;48.874;2.332;2022-08-19T01:45:36;101128.41;;;29.18;41.67
39275;BME280;24980;48.874;2.332;2022-08-19T01:48:09;101130.72;;;29.18;41.67
39275;BME280;24980;48.874;2.332;2022-08-19T01:50:37;101129.09;;;29.18;41.64
39275;BME280;24980;48.874;2.332;2022-08-19T01:53:10;101135.17;;;29.18;41.64
39275;BME280;24980;48.874;2.332;2022-08-19T01:55:40;101133.65;;;29.15;41.65
39275;BME280;24980;48.874;2.332;2022-08-19T01:58:18;101136.08;;;29.12;41.65
39275;BME280;24980;48.874;2.332;2022-08-19T02:00:43;101132.42;;;29.12;41.64
39275;BME280;24980;48.874;2.332;2022-08-19T02:03:10;101131.97;;;29.06;41.64
39275;BME280;24980;48.874;2.332;2022-08-19T02:05:41;101134.42;;;29.02;41.65
39275;BME280;24980;48.874;2.332;2022-08-19T02:08:11;101134.27;;;29.03;41.62
39275;BME280;24980;48.874;2.332;2022-08-19T02:10:43;101133.55;;;29.04;41.58
39275;BME280;24980;48.874;2.332;2022-08-19T02:13:12;101138.36;;;29.03;41.58
39275;BME280;24980;48.874;2.332;2022-08-19T02:15:45;101132.73;;;29.03;41.57
39275;BME280;24980;48.874;2.332;2022-08-19T02:18:13;101136.88;;;29.04;41.57
39275;BME280;24980;48.874;2.332;2022-08-19T02:20:45;101133.66;;;29.03;41.58
39275;BME280;24980;48.874;2.332;2022-08-19T02:23:14;101130.83;;;29.04;41.58
39275;BME280;24980;48.874;2.332;2022-08-19T02:25:46;101130.16;;;29.04;41.60
39275;BME280;24980;48.874;2.332;2022-08-19T02:28:14;101134.70;;;29.03;41.61
39275;BME280;24980;48.874;2.332;2022-08-19T02:30:45;101134.19;;;29.03;41.61
39275;BME280;24980;48.874;2.332;2022-08-19T02:33:15;101140.81;;;29.04;41.61
39275;BME280;24980;48.874;2.332;2022-08-19T02:35:49;101147.81;;;29.02;41.64
39275;BME280;24980;48.874;2.332;2022-08-19T02:38:16;101150.45;;;29.02;41.65
39275;BME280;24980;48.874;2.332;2022-08-19T02:40:50;101144.30;;;29.02;41.66
39275;BME280;24980;48.874;2.332;2022-08-19T02:43:16;101142.30;;;29.03;41.66
39275;BME280;24980;48.874;2.332;2022-08-19T02:45:47;101139.71;;;29.02;41.67
39275;BME280;24980;48.874;2.332;2022-08-19T02:48:21;101137.06;;;29.02;41.69
39275;BME280;24980;48.874;2.332;2022-08-19T02:50:49;101141.47;;;28.98;41.71
39275;BME280;24980;48.874;2.332;2022-08-19T02:53:18;101137.42;;;28.97;41.71
39275;BME280;24980;48.874;2.332;2022-08-19T02:55:50;101133.84;;;28.94;41.72
39275;BME280;24980;48.874;2.332;2022-08-19T02:58:20;101131.56;;;28.94;41.72
39275;BME280;24980;48.874;2.332;2022-08-19T03:00:51;101132.30;;;28.88;41.75
39275;BME280;24980;48.874;2.332;2022-08-19T03:03:19;101137.75;;;28.84;41.77
39275;BME280;24980;48.874;2.332;2022-08-19T03:05:50;101139.80;;;28.81;41.77
39275;BME280;24980;48.874;2.332;2022-08-19T03:08:21;101140.62;;;28.82;41.75
39275;BME280;24980;48.874;2.332;2022-08-19T03:10:51;101141.38;;;28.83;41.74
39275;BME280;24980;48.874;2.332;2022-08-19T03:13:24;101143.39;;;28.81;41.75
39275;BME280;24980;48.874;2.332;2022-08-19T03:15:52;101143.20;;;28.82;41.75
39275;BME280;24980;48.874;2.332;2022-08-19T03:18:22;101136.64;;;28.82;41.75
39275;BME280;24980;48.874;2.332;2022-08-19T03:20:54;101134.71;;;28.80;41.76
39275;BME280;24980;48.874;2.332;2022-08-19T03:23:23;101134.55;;;28.80;41.76
39275;BME280;24980;48.874;2.332;2022-08-19T03:25:53;101133.25;;;28.81;41.77
39275;BME280;24980;48.874;2.332;2022-08-19T03:28:24;101132.30;;;28.79;41.79
39275;BME280;24980;48.874;2.332;2022-08-19T03:30:56;101128.31;;;28.76;41.80
39275;BME280;24980;48.874;2.332;2022-08-19T03:33:30;101127.30;;;28.69;41.85
39275;BME280;24980;48.874;2.332;2022-08-19T03:36:13;101125.87;;;28.63;41.89
39275;BME280;24980;48.874;2.332;2022-08-19T03:38:25;101126.36;;;28.61;41.89
39275;BME280;24980;48.874;2.332;2022-08-19T03:40:56;101124.95;;;28.60;41.88
39275;BME280;24980;48.874;2.332;2022-08-19T03:43:25;101130.27;;;28.58;41.90
39275;BME280;24980;48.874;2.332;2022-08-19T03:46:07;101132.62;;;28.53;41.90
39275;BME280;24980;48.874;2.332;2022-08-19T03:48:26;101129.88;;;28.56;41.88
39275;BME280;24980;48.874;2.332;2022-08-19T03:50:56;101128.33;;;28.59;41.86
39275;BME280;24980;48.874;2.332;2022-08-19T03:53:30;101131.68;;;28.58;41.86
39275;BME280;24980;48.874;2.332;2022-08-19T03:55:58;101131.77;;;28.53;41.90
39275;BME280;24980;48.874;2.332;2022-08-19T03:58:28;101132.74;;;28.52;41.91
39275;BME280;24980;48.874;2.332;2022-08-19T04:00:57;101130.14;;;28.49;41.93
39275;BME280;24980;48.874;2.332;2022-08-19T04:03:28;101133.54;;;28.49;41.94
39275;BME280;24980;48.874;2.332;2022-08-19T04:05:57;101127.58;;;28.49;41.94
39275;BME280;24980;48.874;2.332;2022-08-19T04:08:27;101130.41;;;28.48;41.96
39275;BME280;24980;48.874;2.332;2022-08-19T04:10:57;101129.95;;;28.47;41.96
39275;BME280;24980;48.874;2.332;2022-08-19T04:13:27;101127.27;;;28.46;41.98
39275;BME280;24980;48.874;2.332;2022-08-19T04:15:57;101127.50;;;28.47;41.96
39275;BME280;24980;48.874;2.332;2022-08-19T04:18:27;101123.12;;;28.41;42.02
39275;BME280;24980;48.874;2.332;2022-08-19T04:20:58;101124.58;;;28.42;42.01
39275;BME280;24980;48.874;2.332;2022-08-19T04:23:28;101126.39;;;28.45;42.00
39275;BME280;24980;48.874;2.332;2022-08-19T04:25:58;101126.94;;;28.43;42.02
39275;BME280;24980;48.874;2.332;2022-08-19T04:28:28;101130.71;;;28.40;42.04
39275;BME280;24980;48.874;2.332;2022-08-19T04:30:58;101131.24;;;28.42;42.04
39275;BME280;24980;48.874;2.332;2022-08-19T04:33:28;101135.27;;;28.39;42.06
39275;BME280;24980;48.874;2.332;2022-08-19T04:36:01;101132.55;;;28.36;42.10
39275;BME280;24980;48.874;2.332;2022-08-19T04:38:31;101138.46;;;28.33;42.11
39275;BME280;24980;48.874;2.332;2022-08-19T04:40:59;101133.48;;;28.29;42.14
39275;BME280;24980;48.874;2.332;2022-08-19T04:43:29;101134.06;;;28.28;42.15
39275;BME280;24980;48.874;2.332;2022-08-19T04:46:05;101134.81;;;28.29;42.14
39275;BME280;24980;48.874;2.332;2022-08-19T04:48:30;101141.01;;;28.32;42.12
39275;BME280;24980;48.874;2.332;2022-08-19T04:51:01;101143.94;;;28.32;42.12
39275;BME280;24980;48.874;2.332;2022-08-19T04:53:32;101153.40;;;28.33;42.12
39275;BME280;24980;48.874;2.332;2022-08-19T04:56:07;101156.97;;;28.31;42.16
39275;BME280;24980;48.874;2.332;2022-08-19T04:58:37;101160.78;;;28.32;42.16
39275;BME280;24980;48.874;2.332;2022-08-19T05:01:04;101155.14;;;28.27;42.19
39275;BME280;24980;48.874;2.332;2022-08-19T05:03:33;101162.35;;;28.23;42.23
39275;BME280;24980;48.874;2.332;2022-08-19T05:08:34;101166.81;;;28.17;42.28
39275;BME280;24980;48.874;2.332;2022-08-19T05:11:21;101166.77;;;28.16;42.29
39275;BME280;24980;48.874;2.332;2022-08-19T05:13:34;101169.56;;;28.16;42.28
39275;BME280;24980;48.874;2.332;2022-08-19T05:16:04;101164.45;;;28.16;42.29
39275;BME280;24980;48.874;2.332;2022-08-19T05:18:34;101163.21;;;28.18;42.27
39275;BME280;24980;48.874;2.332;2022-08-19T05:21:09;101160.74;;;28.18;42.28
39275;BME280;24980;48.874;2.332;2022-08-19T05:23:35;101170.23;;;28.14;42.32
39275;BME280;24980;48.874;2.332;2022-08-19T05:26:05;101168.09;;;28.15;42.32
39275;BME280;24980;48.874;2.332;2022-08-19T05:28:35;101173.22;;;28.15;42.33
39275;BME280;24980;48.874;2.332;2022-08-19T05:31:05;101178.45;;;28.09;42.40
39275;BME280;24980;48.874;2.332;2022-08-19T05:33:35;101180.09;;;28.10;42.40
39275;BME280;24980;48.874;2.332;2022-08-19T05:36:06;101177.09;;;28.13;42.38
39275;BME280;24980;48.874;2.332;2022-08-19T05:38:36;101177.06;;;28.16;42.37
39275;BME280;24980;48.874;2.332;2022-08-19T05:41:08;101182.10;;;28.16;42.40
39275;BME280;24980;48.874;2.332;2022-08-19T05:43:36;101177.73;;;28.13;42.43
39275;BME280;24980;48.874;2.332;2022-08-19T05:46:07;101182.34;;;28.12;42.44
39275;BME280;24980;48.874;2.332;2022-08-19T05:48:37;101178.03;;;28.09;42.48
39275;BME280;24980;48.874;2.332;2022-08-19T05:51:07;101175.09;;;28.06;42.50
39275;BME280;24980;48.874;2.332;2022-08-19T05:53:40;101172.16;;;28.06;42.51
39275;BME280;24980;48.874;2.332;2022-08-19T05:56:11;101174.73;;;28.04;42.53
39275;BME280;24980;48.874;2.332;2022-08-19T05:58:39;101178.97;;;27.97;42.57
39275;BME280;24980;48.874;2.332;2022-08-19T06:01:11;101180.09;;;27.87;42.64
39275;BME280;24980;48.874;2.332;2022-08-19T06:03:40;101185.05;;;27.86;42.63
39275;BME280;24980;48.874;2.332;2022-08-19T06:06:12;101192.56;;;27.88;42.63
39275;BME280;24980;48.874;2.332;2022-08-19T06:08:42;101194.84;;;27.91;42.58
39275;BME280;24980;48.874;2.332;2022-08-19T06:11:31;101195.23;;;27.90;42.58
39275;BME280;24980;48.874;2.332;2022-08-19T06:13:46;101197.22;;;27.87;42.62
39275;BME280;24980;48.874;2.332;2022-08-19T06:16:12;101195.49;;;27.84;42.66
39275;BME280;24980;48.874;2.332;2022-08-19T06:18:42;101191.46;;;27.83;42.67
39275;BME280;24980;48.874;2.332;2022-08-19T06:21:12;101193.95;;;27.84;42.66
39275;BME280;24980;48.874;2.332;2022-08-19T06:23:42;101199.52;;;27.79;42.72
39275;BME280;24980;48.874;2.332;2022-08-19T06:26:14;101208.59;;;27.74;42.75
39275;BME280;24980;48.874;2.332;2022-08-19T06:28:43;101209.06;;;27.73;42.76
39275;BME280;24980;48.874;2.332;2022-08-19T06:31:14;101206.89;;;27.71;42.78
39275;BME280;24980;48.874;2.332;2022-08-19T06:33:44;101206.80;;;27.72;42.79
39275;BME280;24980;48.874;2.332;2022-08-19T06:36:25;101207.09;;;27.77;42.76
39275;BME280;24980;48.874;2.332;2022-08-19T06:38:45;101209.73;;;27.81;42.77
39275;BME280;24980;48.874;2.332;2022-08-19T06:41:15;101213.70;;;27.85;42.76
39275;BME280;24980;48.874;2.332;2022-08-19T06:43:45;101217.44;;;27.88;42.80
39275;BME280;24980;48.874;2.332;2022-08-19T06:46:16;101224.08;;;27.90;42.82
39275;BME280;24980;48.874;2.332;2022-08-19T06:48:47;101223.06;;;27.88;42.89
39275;BME280;24980;48.874;2.332;2022-08-19T06:51:17;101223.98;;;27.88;42.91
39275;BME280;24980;48.874;2.332;2022-08-19T06:53:51;101218.94;;;27.89;42.93
39275;BME280;24980;48.874;2.332;2022-08-19T06:56:20;101221.09;;;27.88;42.97
39275;BME280;24980;48.874;2.332;2022-08-19T06:58:49;101219.58;;;27.87;43.01
39275;BME280;24980;48.874;2.332;2022-08-19T07:01:20;101218.14;;;27.87;43.02
39275;BME280;24980;48.874;2.332;2022-08-19T07:03:49;101223.08;;;27.87;43.06
39275;BME280;24980;48.874;2.332;2022-08-19T07:06:19;101222.53;;;27.86;43.08
39275;BME280;24980;48.874;2.332;2022-08-19T07:08:49;101221.55;;;27.87;43.08
39275;BME280;24980;48.874;2.332;2022-08-19T07:11:19;101230.64;;;27.88;43.10
39275;BME280;24980;48.874;2.332;2022-08-19T07:13:49;101233.79;;;27.88;43.13
39275;BME280;24980;48.874;2.332;2022-08-19T07:16:19;101237.55;;;27.88;43.15
39275;BME280;24980;48.874;2.332;2022-08-19T07:18:50;101237.03;;;27.88;43.17
39275;BME280;24980;48.874;2.332;2022-08-19T07:21:25;101235.43;;;27.85;43.20
39275;BME280;24980;48.874;2.332;2022-08-19T07:23:50;101238.66;;;27.83;43.23
39275;BME280;24980;48.874;2.332;2022-08-19T07:26:26;101233.83;;;27.79;43.25
39275;BME280;24980;48.874;2.332;2022-08-19T07:28:51;101236.91;;;27.81;43.24
39275;BME280;24980;48.874;2.332;2022-08-19T07:31:24;101236.41;;;27.81;43.27
39275;BME280;24980;48.874;2.332;2022-08-19T07:33:54;101237.08;;;27.81;43.28
39275;BME280;24980;48.874;2.332;2022-08-19T07:36:27;101233.12;;;27.80;43.30
39275;BME280;24980;48.874;2.332;2022-08-19T07:38:54;101237.83;;;27.77;43.33
39275;BME280;24980;48.874;2.332;2022-08-19T07:41:25;101237.61;;;27.73;43.40
39275;BME280;24980;48.874;2.332;2022-08-19T07:43:54;101237.47;;;27.68;43.40
39275;BME280;24980;48.874;2.332;2022-08-19T07:46:25;101235.77;;;27.68;43.40
39275;BME280;24980;48.874;2.332;2022-08-19T07:48:54;101237.78;;;27.70;43.39
39275;BME280;24980;48.874;2.332;2022-08-19T07:51:25;101236.66;;;27.73;43.38
39275;BME280;24980;48.874;2.332;2022-08-19T07:53:55;101233.97;;;27.71;43.39
39275;BME280;24980;48.874;2.332;2022-08-19T07:56:25;101235.52;;;27.68;43.43
39275;BME280;24980;48.874;2.332;2022-08-19T07:58:55;101234.30;;;27.67;43.44
39275;BME280;24980;48.874;2.332;2022-08-19T08:01:27;101232.93;;;27.67;43.42
39275;BME280;24980;48.874;2.332;2022-08-19T08:03:57;101237.03;;;27.64;43.46
39275;BME280;24980;48.874;2.332;2022-08-19T08:06:26;101237.08;;;27.62;43.48
39275;BME280;24980;48.874;2.332;2022-08-19T08:08:56;101238.25;;;27.63;43.45
39275;BME280;24980;48.874;2.332;2022-08-19T08:11:26;101241.22;;;27.63;43.47
39275;BME280;24980;48.874;2.332;2022-08-19T08:13:56;101243.98;;;27.65;43.44
39275;BME280;24980;48.874;2.332;2022-08-19T08:16:26;101239.93;;;27.64;43.47
39275;BME280;24980;48.874;2.332;2022-08-19T08:18:57;101247.09;;;27.66;43.47
39275;BME280;24980;48.874;2.332;2022-08-19T08:21:27;101248.45;;;27.69;43.47
39275;BME280;24980;48.874;2.332;2022-08-19T08:23:57;101253.28;;;27.70;43.48
39275;BME280;24980;48.874;2.332;2022-08-19T08:26:28;101253.62;;;27.70;43.51
39275;BME280;24980;48.874;2.332;2022-08-19T08:28:58;101257.89;;;27.70;43.54
39275;BME280;24980;48.874;2.332;2022-08-19T08:31:28;101259.10;;;27.71;43.55
39275;BME280;24980;48.874;2.332;2022-08-19T08:33:58;101257.36;;;27.70;43.58
39275;BME280;24980;48.874;2.332;2022-08-19T08:36:28;101259.17;;;27.72;43.60
39275;BME280;24980;48.874;2.332;2022-08-19T08:38:58;101262.84;;;27.72;43.60
39275;BME280;24980;48.874;2.332;2022-08-19T08:42:07;101264.19;;;27.67;43.65
39275;BME280;24980;48.874;2.332;2022-08-19T08:44:00;101255.52;;;27.64;43.67
39275;BME280;24980;48.874;2.332;2022-08-19T08:46:39;101255.55;;;27.65;43.66
39275;BME280;24980;48.874;2.332;2022-08-19T08:51:42;101260.91;;;27.65;43.67
39275;BME280;24980;48.874;2.332;2022-08-19T08:54:05;101256.36;;;27.64;43.68
39275;BME280;24980;48.874;2.332;2022-08-19T08:56:32;101263.12;;;27.65;43.68
39275;BME280;24980;48.874;2.332;2022-08-19T08:59:07;101261.56;;;27.66;43.70
39275;BME280;24980;48.874;2.332;2022-08-19T09:01:34;101258.94;;;27.66;43.71
39275;BME280;24980;48.874;2.332;2022-08-19T09:04:05;101255.95;;;27.66;43.72
39275;BME280;24980;48.874;2.332;2022-08-19T09:06:40;101254.32;;;27.67;43.74
39275;BME280;24980;48.874;2.332;2022-08-19T09:09:20;101257.30;;;27.70;43.73
39275;BME280;24980;48.874;2.332;2022-08-19T09:14:37;101252.52;;;27.72;43.77
39275;BME280;24980;48.874;2.332;2022-08-19T09:16:38;101250.88;;;27.74;43.82
39275;BME280;24980;48.874;2.332;2022-08-19T09:19:08;101250.48;;;27.75;43.85
39275;BME280;24980;48.874;2.332;2022-08-19T09:21:38;101247.66;;;27.75;43.90
39275;BME280;24980;48.874;2.332;2022-08-19T09:24:08;101244.74;;;27.76;43.95
39275;BME280;24980;48.874;2.332;2022-08-19T09:26:46;101249.75;;;27.77;44.00
39275;BME280;24980;48.874;2.332;2022-08-19T09:29:10;101255.82;;;27.78;44.05
39275;BME280;24980;48.874;2.332;2022-08-19T09:31:39;101255.81;;;27.79;44.10
39275;BME280;24980;48.874;2.332;2022-08-19T09:34:10;101254.34;;;27.80;44.15
39275;BME280;24980;48.874;2.332;2022-08-19T09:36:43;101248.88;;;27.80;44.19
39275;BME280;24980;48.874;2.332;2022-08-19T09:39:10;101247.14;;;27.81;44.22
39275;BME280;24980;48.874;2.332;2022-08-19T09:41:43;101242.19;;;27.81;44.27
39275;BME280;24980;48.874;2.332;2022-08-19T09:44:10;101239.28;;;27.82;44.29
39275;BME280;24980;48.874;2.332;2022-08-19T09:46:40;101239.86;;;27.82;44.32
39275;BME280;24980;48.874;2.332;2022-08-19T09:49:10;101240.71;;;27.82;44.36
39275;BME280;24980;48.874;2.332;2022-08-19T09:51:40;101246.83;;;27.83;44.38
39275;BME280;24980;48.874;2.332;2022-08-19T09:54:10;101245.20;;;27.84;44.42
39275;BME280;24980;48.874;2.332;2022-08-19T09:56:40;101246.34;;;27.84;44.44
39275;BME280;24980;48.874;2.332;2022-08-19T09:59:10;101253.32;;;27.85;44.47
39275;BME280;24980;48.874;2.332;2022-08-19T10:01:41;101256.05;;;27.85;44.50
39275;BME280;24980;48.874;2.332;2022-08-19T10:04:11;101251.45;;;27.85;44.52
39275;BME280;24980;48.874;2.332;2022-08-19T10:06:41;101250.00;;;27.84;44.54
39275;BME280;24980;48.874;2.332;2022-08-19T10:09:11;101247.02;;;27.85;44.55
39275;BME280;24980;48.874;2.332;2022-08-19T10:11:43;101242.93;;;27.85;44.58
39275;BME280;24980;48.874;2.332;2022-08-19T10:14:11;101240.89;;;27.85;44.59
39275;BME280;24980;48.874;2.332;2022-08-19T10:16:41;101240.36;;;27.85;44.60
39275;BME280;24980;48.874;2.332;2022-08-19T10:19:11;101238.91;;;27.85;44.61
39275;BME280;24980;48.874;2.332;2022-08-19T10:21:42;101237.97;;;27.86;44.62
39275;BME280;24980;48.874;2.332;2022-08-19T10:24:12;101239.94;;;27.85;44.64
39275;BME280;24980;48.874;2.332;2022-08-19T10:26:42;101233.28;;;27.85;44.67
39275;BME280;24980;48.874;2.332;2022-08-19T10:29:15;101237.53;;;27.86;44.68
39275;BME280;24980;48.874;2.332;2022-08-19T10:31:43;101239.33;;;27.86;44.69
39275;BME280;24980;48.874;2.332;2022-08-19T10:34:14;101234.20;;;27.86;44.71
39275;BME280;24980;48.874;2.332;2022-08-19T10:36:44;101234.12;;;27.86;44.77
39275;BME280;24980;48.874;2.332;2022-08-19T10:39:14;101230.02;;;27.87;44.81
39275;BME280;24980;48.874;2.332;2022-08-19T10:41:53;101232.19;;;27.87;44.84
39275;BME280;24980;48.874;2.332;2022-08-19T10:44:18;101233.17;;;27.87;44.87
39275;BME280;24980;48.874;2.332;2022-08-19T10:46:46;101230.20;;;27.86;44.88
39275;BME280;24980;48.874;2.332;2022-08-19T10:49:19;101230.36;;;27.87;44.91
39275;BME280;24980;48.874;2.332;2022-08-19T10:51:52;101234.49;;;27.87;44.90
39275;BME280;24980;48.874;2.332;2022-08-19T10:54:17;101231.98;;;27.87;44.90
39275;BME280;24980;48.874;2.332;2022-08-19T10:56:53;101230.36;;;27.87;44.90
39275;BME280;24980;48.874;2.332;2022-08-19T10:59:23;101232.33;;;27.86;44.90
39275;BME280;24980;48.874;2.332;2022-08-19T11:01:50;101230.22;;;27.85;44.89
39275;BME280;24980;48.874;2.332;2022-08-19T11:04:20;101227.49;;;27.85;44.88
39275;BME280;24980;48.874;2.332;2022-08-19T11:06:49;101225.62;;;27.85;44.88
39275;BME280;24980;48.874;2.332;2022-08-19T11:09:24;101223.31;;;27.86;44.87
39275;BME280;24980;48.874;2.332;2022-08-19T11:11:50;101220.50;;;27.86;44.87
39275;BME280;24980;48.874;2.332;2022-08-19T11:14:20;101218.88;;;27.86;44.87
39275;BME280;24980;48.874;2.332;2022-08-19T11:16:51;101217.02;;;27.85;44.88
39275;BME280;24980;48.874;2.332;2022-08-19T11:19:21;101216.59;;;27.85;44.88
39275;BME280;24980;48.874;2.332;2022-08-19T11:21:52;101214.39;;;27.85;44.88
39275;BME280;24980;48.874;2.332;2022-08-19T11:24:24;101212.68;;;27.85;44.87
39275;BME280;24980;48.874;2.332;2022-08-19T11:26:55;101211.92;;;27.85;44.88
39275;BME280;24980;48.874;2.332;2022-08-19T11:29:23;101218.64;;;27.85;44.87
39275;BME280;24980;48.874;2.332;2022-08-19T11:31:53;101211.42;;;27.84;44.88
39275;BME280;24980;48.874;2.332;2022-08-19T11:34:26;101209.17;;;27.83;44.88
39275;BME280;24980;48.874;2.332;2022-08-19T11:36:55;101213.59;;;27.83;44.88
39275;BME280;24980;48.874;2.332;2022-08-19T11:39:25;101214.36;;;27.84;44.87
39275;BME280;24980;48.874;2.332;2022-08-19T11:41:55;101214.45;;;27.83;44.87
39275;BME280;24980;48.874;2.332;2022-08-19T11:44:28;101213.35;;;27.83;44.87
39275;BME280;24980;48.874;2.332;2022-08-19T11:46:59;101209.86;;;27.83;44.87
39275;BME280;24980;48.874;2.332;2022-08-19T11:49:26;101208.84;;;27.83;44.87
39275;BME280;24980;48.874;2.332;2022-08-19T11:51:56;101209.12;;;27.82;44.87
39275;BME280;24980;48.874;2.332;2022-08-19T11:54:27;101212.26;;;27.82;44.88
39275;BME280;24980;48.874;2.332;2022-08-19T11:56:56;101218.64;;;27.83;44.88
39275;BME280;24980;48.874;2.332;2022-08-19T11:59:26;101222.65;;;27.82;44.88
39275;BME280;24980;48.874;2.332;2022-08-19T12:01:56;101218.66;;;27.82;44.88
39275;BME280;24980;48.874;2.332;2022-08-19T12:04:27;101221.95;;;27.83;44.88
39275;BME280;24980;48.874;2.332;2022-08-19T12:06:57;101225.45;;;27.83;44.87
39275;BME280;24980;48.874;2.332;2022-08-19T12:09:27;101223.83;;;27.83;44.89
39275;BME280;24980;48.874;2.332;2022-08-19T12:11:57;101224.27;;;27.83;44.89
39275;BME280;24980;48.874;2.332;2022-08-19T12:14:27;101222.22;;;27.83;44.89
39275;BME280;24980;48.874;2.332;2022-08-19T12:16:58;101221.88;;;27.83;44.90
39275;BME280;24980;48.874;2.332;2022-08-19T12:19:27;101220.87;;;27.82;44.91
39275;BME280;24980;48.874;2.332;2022-08-19T12:22:01;101221.04;;;27.82;44.93
39275;BME280;24980;48.874;2.332;2022-08-19T12:24:30;101220.53;;;27.82;44.94
39275;BME280;24980;48.874;2.332;2022-08-19T12:26:59;101220.87;;;27.82;44.95
39275;BME280;24980;48.874;2.332;2022-08-19T12:29:29;101225.28;;;27.83;44.96
39275;BME280;24980;48.874;2.332;2022-08-19T12:31:59;101221.05;;;27.82;44.97
39275;BME280;24980;48.874;2.332;2022-08-19T12:34:32;101217.63;;;27.82;44.98
39275;BME280;24980;48.874;2.332;2022-08-19T12:37:02;101217.03;;;27.82;44.99
39275;BME280;24980;48.874;2.332;2022-08-19T12:39:41;101216.34;;;27.82;45.00
39275;BME280;24980;48.874;2.332;2022-08-19T12:42:02;101213.45;;;27.82;45.02
39275;BME280;24980;48.874;2.332;2022-08-19T12:44:32;101215.33;;;27.82;45.02
39275;BME280;24980;48.874;2.332;2022-08-19T12:47:02;101215.75;;;27.83;45.03
39275;BME280;24980;48.874;2.332;2022-08-19T12:49:32;101214.46;;;27.83;45.04
39275;BME280;24980;48.874;2.332;2022-08-19T12:52:04;101212.16;;;27.83;45.05
39275;BME280;24980;48.874;2.332;2022-08-19T12:54:33;101214.71;;;27.83;45.05
39275;BME280;24980;48.874;2.332;2022-08-19T12:57:07;101213.88;;;27.83;45.07
39275;BME280;24980;48.874;2.332;2022-08-19T12:59:34;101212.85;;;27.83;45.08
39275;BME280;24980;48.874;2.332;2022-08-19T13:02:06;101215.31;;;27.83;45.11
39275;BME280;24980;48.874;2.332;2022-08-19T13:04:35;101213.84;;;27.84;45.12
39275;BME280;24980;48.874;2.332;2022-08-19T13:07:05;101203.23;;;27.85;45.14
39275;BME280;24980;48.874;2.332;2022-08-19T13:09:41;101198.29;;;27.85;45.15
39275;BME280;24980;48.874;2.332;2022-08-19T13:12:06;101194.02;;;27.85;45.18